createdAt,value
2023-12-31T00:00:13.942Z,1.38
2023-12-31T00:02:41.880Z,1.30
2023-12-31T00:05:09.484Z,1.40
2023-12-31T00:07:38.461Z,1.17
2023-12-31T00:10:07.534Z,1.40
2023-12-31T00:12:35.095Z,1.33
2023-12-31T00:15:02.785Z,1.70
2023-12-31T00:17:30.392Z,0.98
2023-12-31T00:19:58.072Z,1.35
2023-12-31T00:22:25.815Z,1.33
2023-12-31T00:24:55.775Z,1.13
2023-12-31T00:27:23.699Z,1.55
2023-12-31T00:29:51.518Z,1.50
2023-12-31T00:32:19.131Z,1.45
2023-12-31T00:34:46.867Z,1.45
2023-12-31T00:37:14.511Z,1.10
2023-12-31T00:39:42.081Z,1.05
2023-12-31T00:42:11.041Z,1.52
2023-12-31T00:44:38.750Z,1.60
2023-12-31T00:47:06.919Z,1.40
2023-12-31T00:49:34.661Z,1.50
2023-12-31T00:52:02.261Z,0.90
2023-12-31T00:54:29.869Z,1.00
2023-12-31T00:56:57.409Z,1.10
2023-12-31T00:59:26.328Z,1.27
2023-12-31T01:01:56.144Z,1.33
2023-12-31T01:09:19.251Z,1.20
2023-12-31T01:11:46.977Z,1.10
2023-12-31T01:14:15.616Z,1.05
2023-12-31T01:16:44.742Z,1.05
2023-12-31T01:19:12.362Z,1.33
2023-12-31T01:21:39.920Z,1.45
2023-12-31T01:24:07.519Z,0.82
2023-12-31T01:26:35.071Z,0.82
2023-12-31T01:29:02.608Z,1.23
2023-12-31T01:31:30.316Z,1.30
2023-12-31T01:33:59.261Z,1.17
2023-12-31T01:36:26.895Z,1.08
2023-12-31T01:38:54.497Z,1.05
2023-12-31T01:41:22.041Z,1.30
2023-12-31T01:43:50.937Z,1.33
2023-12-31T01:46:30.009Z,1.20
2023-12-31T01:49:00.439Z,1.00
2023-12-31T01:51:29.404Z,1.05
2023-12-31T01:54:00.330Z,1.17
2023-12-31T01:56:29.739Z,1.20
2023-12-31T01:58:58.381Z,1.35
2023-12-31T02:01:27.064Z,1.35
2023-12-31T02:03:54.708Z,1.25
2023-12-31T02:06:23.634Z,1.20
2023-12-31T02:08:51.420Z,1.23
2023-12-31T02:11:19.019Z,1.13
2023-12-31T02:13:46.691Z,1.17
2023-12-31T02:16:14.659Z,1.10
2023-12-31T02:18:42.392Z,0.50
2023-12-31T02:21:10.455Z,0.95
2023-12-31T02:23:40.009Z,0.88
2023-12-31T02:26:11.669Z,0.38
2023-12-31T02:28:40.264Z,1.35
2023-12-31T02:31:08.727Z,0.50
2023-12-31T02:33:36.469Z,1.13
2023-12-31T02:36:04.479Z,0.95
2023-12-31T02:38:32.092Z,1.10
2023-12-31T02:40:59.781Z,2.35
2023-12-31T02:43:28.693Z,0.82
2023-12-31T02:45:56.275Z,0.93
2023-12-31T02:48:23.906Z,1.20
2023-12-31T02:50:51.492Z,0.95
2023-12-31T02:53:19.062Z,1.40
2023-12-31T02:55:46.874Z,0.55
2023-12-31T02:58:14.909Z,0.77
2023-12-31T03:00:43.878Z,0.63
2023-12-31T03:03:11.650Z,1.10
2023-12-31T03:05:39.251Z,1.00
2023-12-31T03:08:07.638Z,1.10
2023-12-31T03:10:35.225Z,1.08
2023-12-31T03:13:03.021Z,0.63
2023-12-31T03:15:30.757Z,0.77
2023-12-31T03:17:59.933Z,0.90
2023-12-31T03:20:27.534Z,0.90
2023-12-31T03:22:55.263Z,1.20
2023-12-31T03:25:22.850Z,0.90
2023-12-31T03:27:50.487Z,1.13
2023-12-31T03:30:18.296Z,1.15
2023-12-31T03:32:46.178Z,0.90
2023-12-31T03:35:17.848Z,1.10
2023-12-31T03:37:48.953Z,1.45
2023-12-31T03:40:17.058Z,1.17
2023-12-31T03:42:44.740Z,1.40
2023-12-31T03:45:12.546Z,1.10
2023-12-31T03:47:40.183Z,1.23
2023-12-31T03:50:10.468Z,1.20
2023-12-31T03:52:39.466Z,1.15
2023-12-31T03:55:07.978Z,1.63
2023-12-31T03:57:35.523Z,1.30
2023-12-31T04:00:05.092Z,1.05
2023-12-31T04:02:32.743Z,1.17
2023-12-31T04:05:00.596Z,1.20
2023-12-31T04:07:28.288Z,0.88
2023-12-31T04:09:57.565Z,1.20
2023-12-31T04:12:25.170Z,1.00
2023-12-31T04:14:52.721Z,0.90
2023-12-31T04:17:20.773Z,1.08
2023-12-31T04:19:48.421Z,1.08
2023-12-31T04:22:15.978Z,1.10
2023-12-31T04:24:43.606Z,0.93
2023-12-31T04:27:12.437Z,0.90
2023-12-31T04:29:39.980Z,1.10
2023-12-31T04:32:08.049Z,0.65
2023-12-31T04:34:35.617Z,1.05
2023-12-31T04:37:03.236Z,1.10
2023-12-31T04:39:30.917Z,0.80
2023-12-31T04:41:58.472Z,1.00
2023-12-31T04:44:27.343Z,1.00
2023-12-31T04:46:54.933Z,1.05
2023-12-31T04:49:22.585Z,1.00
2023-12-31T04:51:50.152Z,1.08
2023-12-31T04:54:17.707Z,1.00
2023-12-31T04:56:45.231Z,0.73
2023-12-31T04:59:12.769Z,0.80
2023-12-31T05:01:41.675Z,0.88
2023-12-31T05:04:09.302Z,0.90
2023-12-31T05:06:36.886Z,0.90
2023-12-31T05:09:09.276Z,0.90
2023-12-31T05:11:36.860Z,1.35
2023-12-31T05:14:04.403Z,1.38
2023-12-31T05:16:33.202Z,1.10
2023-12-31T05:19:02.337Z,1.02
2023-12-31T05:21:29.953Z,1.17
2023-12-31T05:23:57.546Z,1.02
2023-12-31T05:26:25.090Z,1.30
2023-12-31T05:28:53.556Z,1.00
2023-12-31T05:31:21.236Z,1.15
2023-12-31T05:33:48.950Z,2.22
2023-12-31T05:36:17.869Z,7.45
2023-12-31T05:38:45.468Z,3.97
2023-12-31T05:41:13.013Z,4.43
2023-12-31T05:43:40.581Z,3.28
2023-12-31T05:46:08.133Z,2.00
2023-12-31T05:48:35.771Z,1.48
2023-12-31T05:51:05.182Z,1.40
2023-12-31T05:53:35.041Z,4.43
2023-12-31T05:56:02.575Z,2.38
2023-12-31T05:58:30.542Z,1.48
2023-12-31T06:00:59.586Z,2.80
2023-12-31T06:03:27.216Z,1.42
2023-12-31T06:05:54.806Z,1.90
2023-12-31T06:08:22.369Z,3.00
2023-12-31T06:10:51.363Z,1.15
2023-12-31T06:13:19.038Z,0.95
2023-12-31T06:15:46.625Z,0.25
2023-12-31T06:18:14.256Z,1.13
2023-12-31T06:20:41.774Z,1.08
2023-12-31T06:23:09.331Z,0.63
2023-12-31T06:25:36.947Z,0.70
2023-12-31T06:28:06.256Z,1.08
2023-12-31T06:30:33.943Z,0.70
2023-12-31T06:33:01.894Z,1.40
2023-12-31T06:35:29.604Z,1.65
2023-12-31T06:37:57.172Z,1.13
2023-12-31T06:40:24.757Z,1.05
2023-12-31T06:42:52.335Z,1.55
2023-12-31T06:45:21.159Z,0.22
2023-12-31T06:47:48.853Z,1.13
2023-12-31T06:50:16.808Z,2.90
2023-12-31T06:52:44.420Z,2.50
2023-12-31T06:55:13.356Z,0.13
2023-12-31T06:57:41.053Z,1.13
2023-12-31T07:00:10.171Z,0.63
2023-12-31T07:02:40.149Z,1.80
2023-12-31T07:05:09.398Z,1.08
2023-12-31T07:07:38.306Z,1.15
2023-12-31T07:10:07.056Z,1.10
2023-12-31T07:12:34.680Z,1.05
2023-12-31T07:15:03.051Z,1.60
2023-12-31T07:17:31.094Z,0.80
2023-12-31T07:20:00.497Z,1.20
2023-12-31T07:22:28.349Z,1.20
2023-12-31T07:24:55.903Z,1.10
2023-12-31T07:27:23.440Z,0.85
2023-12-31T07:29:51.192Z,0.77
2023-12-31T07:32:19.648Z,1.08
2023-12-31T07:34:47.272Z,1.30
2023-12-31T07:37:16.362Z,1.45
2023-12-31T07:39:43.921Z,1.00
2023-12-31T07:42:11.473Z,0.77
2023-12-31T07:44:38.979Z,0.50
2023-12-31T07:47:06.711Z,1.40
2023-12-31T07:49:34.554Z,1.48
2023-12-31T07:52:02.140Z,1.40
2023-12-31T07:54:31.042Z,0.80
2023-12-31T07:56:59.369Z,1.27
2023-12-31T07:59:27.425Z,2.00
2023-12-31T08:01:55.041Z,1.70
2023-12-31T08:04:23.281Z,1.70
2023-12-31T08:06:51.539Z,1.40
2023-12-31T08:09:19.158Z,1.42
2023-12-31T08:11:48.075Z,1.73
2023-12-31T08:14:15.765Z,1.17
2023-12-31T08:16:43.416Z,1.60
2023-12-31T08:19:11.070Z,1.42
2023-12-31T08:21:38.868Z,2.70
2023-12-31T08:24:07.231Z,3.75
2023-12-31T08:26:34.930Z,3.38
2023-12-31T08:29:04.011Z,2.40
2023-12-31T08:31:31.631Z,2.05
2023-12-31T08:33:59.240Z,2.75
2023-12-31T08:36:26.850Z,1.63
2023-12-31T08:38:54.387Z,1.67
2023-12-31T08:41:22.063Z,1.83
2023-12-31T08:43:50.006Z,1.08
2023-12-31T08:46:19.422Z,1.70
2023-12-31T08:48:47.086Z,1.42
2023-12-31T08:51:14.700Z,2.30
2023-12-31T08:53:43.669Z,2.75
2023-12-31T08:56:11.268Z,0.90
2023-12-31T08:58:38.874Z,0.85
2023-12-31T09:01:06.866Z,1.17
2023-12-31T09:03:35.953Z,0.90
2023-12-31T09:06:03.726Z,1.17
2023-12-31T09:08:31.294Z,1.23
2023-12-31T09:10:58.875Z,0.70
2023-12-31T09:13:27.523Z,1.45
2023-12-31T09:15:57.024Z,1.00
2023-12-31T09:18:25.974Z,1.45
2023-12-31T09:20:56.045Z,2.58
2023-12-31T09:23:23.600Z,6.20
2023-12-31T09:25:52.704Z,2.60
2023-12-31T09:28:20.327Z,1.92
2023-12-31T09:30:47.898Z,1.63
2023-12-31T09:33:15.907Z,2.15
2023-12-31T09:35:43.662Z,1.92
2023-12-31T09:38:12.486Z,1.33
2023-12-31T09:40:41.374Z,1.98
2023-12-31T09:43:11.181Z,1.15
2023-12-31T09:45:39.679Z,1.52
2023-12-31T09:48:09.583Z,2.08
2023-12-31T09:50:37.178Z,1.48
2023-12-31T09:53:06.577Z,2.70
2023-12-31T09:55:36.427Z,2.22
2023-12-31T10:00:32.665Z,2.03
2023-12-31T10:03:00.367Z,1.42
2023-12-31T10:05:28.328Z,2.20
2023-12-31T10:07:56.878Z,2.42
2023-12-31T10:10:27.140Z,3.15
2023-12-31T10:12:55.993Z,2.92
2023-12-31T10:15:23.531Z,2.35
2023-12-31T10:17:51.412Z,33.85
2023-12-31T10:20:21.645Z,28.60
2023-12-31T10:22:50.457Z,9.50
2023-12-31T10:25:20.765Z,8.05
2023-12-31T10:27:49.376Z,4.30
2023-12-31T10:30:21.527Z,2.88
2023-12-31T10:32:49.278Z,1.38
2023-12-31T10:35:20.917Z,1.20
2023-12-31T10:37:48.584Z,1.00
2023-12-31T10:40:20.847Z,2.00
2023-12-31T10:42:52.163Z,1.52
2023-12-31T10:45:22.089Z,1.77
2023-12-31T10:47:52.772Z,1.83
2023-12-31T10:50:24.030Z,0.90
2023-12-31T10:52:52.939Z,0.77
2023-12-31T10:55:20.980Z,1.23
2023-12-31T10:57:49.206Z,2.47
2023-12-31T11:00:18.081Z,3.47
2023-12-31T11:02:47.823Z,5.68
2023-12-31T11:05:18.330Z,1.60
2023-12-31T11:07:48.045Z,3.00
2023-12-31T11:10:15.640Z,2.05
2023-12-31T11:12:49.410Z,1.50
2023-12-31T11:15:19.453Z,0.85
2023-12-31T11:18:06.314Z,1.88
2023-12-31T11:20:54.470Z,1.15
2023-12-31T11:23:33.836Z,0.95
2023-12-31T11:26:02.559Z,0.90
2023-12-31T11:28:30.407Z,0.80
2023-12-31T11:31:00.248Z,0.65
2023-12-31T11:33:34.396Z,0.98
2023-12-31T11:36:05.275Z,1.05
2023-12-31T11:38:59.321Z,1.05
2023-12-31T11:41:28.781Z,1.58
2023-12-31T11:43:56.408Z,1.30
2023-12-31T11:46:35.070Z,1.92
2023-12-31T11:49:04.605Z,1.10
2023-12-31T11:51:52.313Z,2.90
2023-12-31T11:54:22.157Z,2.30
2023-12-31T11:56:51.164Z,1.80
2023-12-31T11:59:19.494Z,1.63
2023-12-31T12:01:50.559Z,1.85
2023-12-31T12:04:21.716Z,1.55
2023-12-31T12:06:49.364Z,1.40
2023-12-31T12:09:17.014Z,1.25
2023-12-31T12:11:46.342Z,2.05
2023-12-31T12:14:13.985Z,1.88
2023-12-31T12:16:43.769Z,1.52
2023-12-31T12:21:42.949Z,0.77
2023-12-31T12:24:10.861Z,2.22
2023-12-31T12:26:38.505Z,1.50
2023-12-31T12:29:06.067Z,2.50
2023-12-31T12:31:37.402Z,1.35
2023-12-31T12:34:06.291Z,1.90
2023-12-31T12:36:34.385Z,1.50
2023-12-31T12:39:04.277Z,1.48
2023-12-31T12:41:33.323Z,2.17
2023-12-31T12:44:01.598Z,2.15
2023-12-31T12:46:30.458Z,1.70
2023-12-31T12:48:59.022Z,1.27
2023-12-31T12:51:26.952Z,0.80
2023-12-31T12:53:55.583Z,1.40
2023-12-31T12:56:24.899Z,1.48
2023-12-31T12:58:52.754Z,1.42
2023-12-31T13:01:20.730Z,0.85
2023-12-31T13:03:48.653Z,1.80
2023-12-31T13:06:17.418Z,1.45
2023-12-31T13:08:45.211Z,1.35
2023-12-31T13:11:13.183Z,1.42
2023-12-31T13:13:42.343Z,2.28
2023-12-31T13:16:18.312Z,1.50
2023-12-31T13:18:50.011Z,0.85
2023-12-31T13:21:17.846Z,2.08
2023-12-31T13:23:45.593Z,1.70
2023-12-31T13:26:13.260Z,1.92
2023-12-31T13:28:42.102Z,1.70
2023-12-31T13:31:09.844Z,2.22
2023-12-31T13:33:38.643Z,2.08
2023-12-31T13:36:07.246Z,1.35
2023-12-31T13:38:34.862Z,1.30
2023-12-31T13:41:02.540Z,1.65
2023-12-31T13:43:30.311Z,2.42
2023-12-31T13:46:00.175Z,1.83
2023-12-31T13:48:28.052Z,1.67
2023-12-31T13:50:55.940Z,2.28
2023-12-31T13:53:23.780Z,2.60
2023-12-31T13:55:51.415Z,0.93
2023-12-31T13:58:19.021Z,2.17
2023-12-31T14:00:51.516Z,1.90
2023-12-31T14:03:20.626Z,1.65
2023-12-31T14:05:48.346Z,1.90
2023-12-31T14:08:16.039Z,1.70
2023-12-31T14:10:43.625Z,3.00
2023-12-31T14:13:11.476Z,1.73
2023-12-31T14:15:39.093Z,2.30
2023-12-31T14:18:07.086Z,1.67
2023-12-31T14:20:36.181Z,2.60
2023-12-31T14:23:04.189Z,2.15
2023-12-31T14:25:31.913Z,1.50
2023-12-31T14:27:59.583Z,2.45
2023-12-31T14:30:27.317Z,2.67
2023-12-31T14:32:54.075Z,1.52
2023-12-31T14:35:21.757Z,2.25
2023-12-31T14:37:50.809Z,1.95
2023-12-31T14:40:18.532Z,1.70
2023-12-31T14:42:46.340Z,2.17
2023-12-31T14:45:13.887Z,2.13
2023-12-31T14:47:41.706Z,1.25
2023-12-31T14:50:10.564Z,1.75
2023-12-31T14:52:38.387Z,1.83
2023-12-31T14:55:08.290Z,3.08
2023-12-31T14:57:35.890Z,1.95
2023-12-31T15:00:05.886Z,1.58
2023-12-31T15:02:33.534Z,2.38
2023-12-31T15:05:07.308Z,1.02
2023-12-31T15:10:11.669Z,4.15
2023-12-31T15:12:39.314Z,1.50
2023-12-31T15:15:07.363Z,2.20
2023-12-31T15:17:35.065Z,1.10
2023-12-31T15:20:03.376Z,1.55
2023-12-31T15:22:31.101Z,1.65
2023-12-31T15:24:58.836Z,2.33
2023-12-31T15:27:27.986Z,2.50
2023-12-31T15:29:54.589Z,1.58
2023-12-31T15:32:22.171Z,1.95
2023-12-31T15:34:49.775Z,3.00
2023-12-31T15:37:17.313Z,1.75
2023-12-31T15:39:44.876Z,1.48
2023-12-31T15:42:12.394Z,2.20
2023-12-31T15:44:41.252Z,2.50
2023-12-31T15:47:08.813Z,1.10
2023-12-31T15:49:37.424Z,1.40
2023-12-31T15:52:05.627Z,1.50
2023-12-31T15:54:33.162Z,2.10
2023-12-31T15:57:00.865Z,3.13
2023-12-31T15:59:28.515Z,0.50
2023-12-31T16:01:57.427Z,2.08
2023-12-31T16:04:25.039Z,1.65
2023-12-31T16:06:52.593Z,2.80
2023-12-31T16:09:20.128Z,3.42
2023-12-31T16:11:47.831Z,2.03
2023-12-31T16:14:15.361Z,3.55
2023-12-31T16:16:42.961Z,2.40
2023-12-31T16:19:11.840Z,2.35
2023-12-31T16:21:39.388Z,2.78
2023-12-31T16:24:07.582Z,2.78
2023-12-31T16:26:35.129Z,1.83
2023-12-31T16:29:04.238Z,2.63
2023-12-31T16:31:31.911Z,2.80
2023-12-31T16:34:01.663Z,3.08
2023-12-31T16:39:00.947Z,5.00
2023-12-31T16:41:28.557Z,4.78
2023-12-31T16:43:56.185Z,5.07
2023-12-31T16:46:23.792Z,3.13
2023-12-31T16:48:51.673Z,4.53
2023-12-31T16:51:19.249Z,5.07
2023-12-31T16:53:48.673Z,6.03
2023-12-31T16:56:16.362Z,6.72
2023-12-31T16:58:44.015Z,7.00
2023-12-31T17:01:11.530Z,8.05
2023-12-31T17:03:39.051Z,5.07
2023-12-31T17:06:06.804Z,8.05
2023-12-31T17:08:34.612Z,4.75
2023-12-31T17:11:03.812Z,5.05
2023-12-31T17:13:31.533Z,6.75
2023-12-31T17:15:59.171Z,5.78
2023-12-31T17:18:26.798Z,8.02
2023-12-31T17:20:54.789Z,7.75
2023-12-31T17:23:22.496Z,26.60
2023-12-31T17:25:50.188Z,8.70
2023-12-31T17:28:19.175Z,7.95
2023-12-31T17:30:46.869Z,2.92
2023-12-31T17:33:14.545Z,2.88
2023-12-31T17:35:42.087Z,1.20
2023-12-31T17:38:09.702Z,2.10
2023-12-31T17:40:37.391Z,1.55
2023-12-31T17:43:05.324Z,2.17
2023-12-31T17:45:36.111Z,1.48
2023-12-31T17:48:04.222Z,1.35
2023-12-31T17:50:32.118Z,0.98
2023-12-31T17:53:00.089Z,1.38
2023-12-31T17:55:27.749Z,0.80
2023-12-31T17:57:55.344Z,0.77
2023-12-31T18:00:22.884Z,1.90
2023-12-31T18:02:51.737Z,0.77
2023-12-31T18:05:19.337Z,0.80
2023-12-31T18:07:47.084Z,0.63
2023-12-31T18:10:14.655Z,0.77
2023-12-31T18:12:42.175Z,1.60
2023-12-31T18:15:10.199Z,2.03
2023-12-31T18:17:37.862Z,1.75
2023-12-31T18:20:08.434Z,2.53
2023-12-31T18:22:36.035Z,1.88
2023-12-31T18:25:03.664Z,1.10
2023-12-31T18:27:31.205Z,2.30
2023-12-31T18:30:07.762Z,1.95
2023-12-31T18:32:39.671Z,0.73
2023-12-31T18:35:09.544Z,0.77
2023-12-31T18:37:37.153Z,0.95
2023-12-31T18:40:05.720Z,1.50
2023-12-31T18:42:33.260Z,0.77
2023-12-31T18:45:00.808Z,3.05
2023-12-31T18:47:28.510Z,2.22
2023-12-31T18:49:56.161Z,3.72
2023-12-31T18:52:25.112Z,3.92
2023-12-31T18:54:52.710Z,3.90
2023-12-31T18:57:21.716Z,3.17
2023-12-31T18:59:49.357Z,3.80
2023-12-31T19:02:18.434Z,4.47
2023-12-31T19:04:46.061Z,3.92
2023-12-31T19:07:13.742Z,14.20
2023-12-31T19:09:42.616Z,7.93
2023-12-31T19:12:10.724Z,15.18
2023-12-31T19:14:38.326Z,23.73
2023-12-31T19:17:06.127Z,13.45
2023-12-31T19:19:35.581Z,16.23
2023-12-31T19:22:03.196Z,19.88
2023-12-31T19:24:30.706Z,44.70
2023-12-31T19:26:59.572Z,4.15
2023-12-31T19:29:27.096Z,16.38
2023-12-31T19:31:54.668Z,5.05
2023-12-31T19:34:22.216Z,24.67
2023-12-31T19:36:49.793Z,29.25
2023-12-31T19:39:17.550Z,35.65
2023-12-31T19:41:45.142Z,17.08
2023-12-31T19:44:28.200Z,43.83
2023-12-31T19:47:02.182Z,19.95
2023-12-31T19:49:30.376Z,39.88
2023-12-31T19:51:59.500Z,57.80
2023-12-31T19:54:27.131Z,26.45
2023-12-31T19:56:54.730Z,7.88
2023-12-31T19:59:23.632Z,5.95
2023-12-31T20:01:51.581Z,4.70
2023-12-31T20:04:19.267Z,11.48
2023-12-31T20:06:46.878Z,10.52
2023-12-31T20:09:14.767Z,12.13
2023-12-31T20:11:43.458Z,8.52
2023-12-31T20:14:14.109Z,11.90
2023-12-31T20:16:43.491Z,11.13
2023-12-31T20:19:11.890Z,8.85
2023-12-31T20:21:41.487Z,18.08
2023-12-31T20:24:12.712Z,10.88
2023-12-31T20:26:40.272Z,18.63
2023-12-31T20:29:07.983Z,14.13
2023-12-31T20:31:35.529Z,7.93
2023-12-31T20:34:04.395Z,4.78
2023-12-31T20:36:31.983Z,4.95
2023-12-31T20:38:59.698Z,4.90
2023-12-31T20:41:27.256Z,5.90
2023-12-31T20:43:55.139Z,10.93
2023-12-31T20:46:22.984Z,12.68
2023-12-31T20:48:50.566Z,8.48
2023-12-31T20:51:20.408Z,7.57
2023-12-31T20:56:15.842Z,7.70
2023-12-31T20:58:43.435Z,126.32
2023-12-31T21:01:11.105Z,65.50
2023-12-31T21:03:38.912Z,123.85
2023-12-31T21:06:07.385Z,45.38
2023-12-31T21:08:36.391Z,37.42
2023-12-31T21:11:04.888Z,15.00
2023-12-31T21:13:33.693Z,9.27
2023-12-31T21:16:03.537Z,12.40
2023-12-31T21:18:32.209Z,10.85
2023-12-31T21:20:59.834Z,7.20
2023-12-31T21:23:27.431Z,8.50
2023-12-31T21:25:56.349Z,13.23
2023-12-31T21:28:26.261Z,12.38
2023-12-31T21:30:53.926Z,16.23
2023-12-31T21:33:21.669Z,26.55
2023-12-31T21:35:49.363Z,16.58
2023-12-31T21:38:17.106Z,11.95
2023-12-31T21:40:44.826Z,5.93
2023-12-31T21:43:13.788Z,46.47
2023-12-31T21:45:41.309Z,37.92
2023-12-31T21:48:09.515Z,30.45
2023-12-31T21:50:37.844Z,9.35
2023-12-31T21:53:05.790Z,9.35
2023-12-31T21:58:06.233Z,10.88
2023-12-31T22:00:37.882Z,6.28
2023-12-31T22:03:06.258Z,7.13
2023-12-31T22:05:36.686Z,5.35
2023-12-31T22:08:05.023Z,3.20
2023-12-31T22:10:32.789Z,5.28
2023-12-31T22:13:00.371Z,8.32
2023-12-31T22:15:28.023Z,6.57
2023-12-31T22:17:56.896Z,6.03
2023-12-31T22:20:24.528Z,5.10
2023-12-31T22:22:52.146Z,4.63
2023-12-31T22:25:20.427Z,5.47
2023-12-31T22:27:47.954Z,4.88
2023-12-31T22:30:15.727Z,5.25
2023-12-31T22:32:43.406Z,2.67
2023-12-31T22:35:12.956Z,5.63
2023-12-31T22:37:40.614Z,8.85
2023-12-31T22:40:09.555Z,5.85
2023-12-31T22:42:37.125Z,6.03
2023-12-31T22:45:05.348Z,7.80
2023-12-31T22:47:32.931Z,10.88
2023-12-31T22:50:00.665Z,4.65
2023-12-31T22:52:30.156Z,4.47
2023-12-31T22:54:57.717Z,3.42
2023-12-31T22:57:25.228Z,2.30
2023-12-31T22:59:52.938Z,3.05
2023-12-31T23:02:20.587Z,2.78
2023-12-31T23:04:48.173Z,2.90
2023-12-31T23:07:15.745Z,83.45
2023-12-31T23:09:44.599Z,66.35
2023-12-31T23:12:12.140Z,72.03
2023-12-31T23:14:39.727Z,138.35
2023-12-31T23:17:07.361Z,84.72
2023-12-31T23:19:35.305Z,50.47
2023-12-31T23:22:02.854Z,52.83
2023-12-31T23:24:30.369Z,56.35
2023-12-31T23:26:59.392Z,50.63
2023-12-31T23:29:27.098Z,46.22
2023-12-31T23:31:54.668Z,34.45
2023-12-31T23:34:22.208Z,40.92
2023-12-31T23:36:54.781Z,36.33
2023-12-31T23:39:28.803Z,29.05
2023-12-31T23:41:56.400Z,28.55
2023-12-31T23:44:27.137Z,18.45
2023-12-31T23:46:54.911Z,19.88
2023-12-31T23:49:22.529Z,24.38
2023-12-31T23:51:50.107Z,23.30
2023-12-31T23:54:17.688Z,23.55
2023-12-31T23:56:45.242Z,25.20
2023-12-31T23:59:12.829Z,26.50
